sensor_id;sensor_type;location;lat;lon;timestamp;temperature;humidity
20139;DHT22;10230;51.502;10.800;2022-12-07T00:01:13;3.40;99.90
20139;DHT22;10230;51.502;10.800;2022-12-07T00:03:40;3.40;99.90
20139;DHT22;10230;51.502;10.800;2022-12-07T00:06:08;3.50;99.90
20139;DHT22;10230;51.502;10.800;2022-12-07T00:08:34;3.50;99.90
20139;DHT22;10230;51.502;10.800;2022-12-07T00:11:04;3.60;99.90
20139;DHT22;10230;51.502;10.800;2022-12-07T00:13:31;3.60;99.90
20139;DHT22;10230;51.502;10.800;2022-12-07T00:16:04;3.70;99.90
20139;DHT22;10230;51.502;10.800;2022-12-07T00:18:30;3.70;99.90
20139;DHT22;10230;51.502;10.800;2022-12-07T00:21:03;3.70;99.90
20139;DHT22;10230;51.502;10.800;2022-12-07T00:23:29;3.80;99.90
20139;DHT22;10230;51.502;10.800;2022-12-07T00:25:55;3.80;99.90
20139;DHT22;10230;51.502;10.800;2022-12-07T00:28:21;3.80;99.90
20139;DHT22;10230;51.502;10.800;2022-12-07T00:30:46;3.90;99.90
20139;DHT22;10230;51.502;10.800;2022-12-07T00:33:12;3.90;99.90
20139;DHT22;10230;51.502;10.800;2022-12-07T00:35:37;3.90;99.90
20139;DHT22;10230;51.502;10.800;2022-12-07T00:38:03;3.90;99.90
20139;DHT22;10230;51.502;10.800;2022-12-07T00:40:29;3.90;99.90
20139;DHT22;10230;51.502;10.800;2022-12-07T00:42:54;3.90;99.90
20139;DHT22;10230;51.502;10.800;2022-12-07T00:45:20;3.90;99.90
20139;DHT22;10230;51.502;10.800;2022-12-07T00:47:45;3.90;99.90
20139;DHT22;10230;51.502;10.800;2022-12-07T00:50:11;3.90;99.90
20139;DHT22;10230;51.502;10.800;2022-12-07T00:52:37;3.90;99.90
20139;DHT22;10230;51.502;10.800;2022-12-07T00:55:02;3.90;99.90
20139;DHT22;10230;51.502;10.800;2022-12-07T00:57:30;3.90;99.90
20139;DHT22;10230;51.502;10.800;2022-12-07T00:59:55;3.90;99.90
20139;DHT22;10230;51.502;10.800;2022-12-07T01:02:23;3.90;99.90
20139;DHT22;10230;51.502;10.800;2022-12-07T01:04:48;4.00;99.90
20139;DHT22;10230;51.502;10.800;2022-12-07T01:07:14;4.00;99.90
20139;DHT22;10230;51.502;10.800;2022-12-07T01:09:40;4.00;99.90
20139;DHT22;10230;51.502;10.800;2022-12-07T01:12:05;4.00;99.90
20139;DHT22;10230;51.502;10.800;2022-12-07T01:14:31;4.10;99.90
20139;DHT22;10230;51.502;10.800;2022-12-07T01:16:57;4.10;99.90
20139;DHT22;10230;51.502;10.800;2022-12-07T01:19:22;4.10;99.90
20139;DHT22;10230;51.502;10.800;2022-12-07T01:21:48;4.10;99.90
20139;DHT22;10230;51.502;10.800;2022-12-07T01:24:14;4.20;99.90
20139;DHT22;10230;51.502;10.800;2022-12-07T01:26:39;4.20;99.90
20139;DHT22;10230;51.502;10.800;2022-12-07T01:29:05;4.20;99.90
20139;DHT22;10230;51.502;10.800;2022-12-07T01:31:31;4.20;99.90
20139;DHT22;10230;51.502;10.800;2022-12-07T01:33:58;4.20;99.90
20139;DHT22;10230;51.502;10.800;2022-12-07T01:36:26;4.20;99.90
20139;DHT22;10230;51.502;10.800;2022-12-07T01:38:56;4.20;99.90
20139;DHT22;10230;51.502;10.800;2022-12-07T01:41:24;4.20;99.90
20139;DHT22;10230;51.502;10.800;2022-12-07T01:44:13;4.20;99.90
20139;DHT22;10230;51.502;10.800;2022-12-07T01:46:39;4.20;99.90
20139;DHT22;10230;51.502;10.800;2022-12-07T01:49:12;4.30;99.90
20139;DHT22;10230;51.502;10.800;2022-12-07T01:51:40;4.30;99.90
20139;DHT22;10230;51.502;10.800;2022-12-07T01:54:08;4.20;99.90
20139;DHT22;10230;51.502;10.800;2022-12-07T01:56:36;4.20;99.90
20139;DHT22;10230;51.502;10.800;2022-12-07T01:59:02;4.20;99.90
20139;DHT22;10230;51.502;10.800;2022-12-07T02:01:28;4.20;99.90
20139;DHT22;10230;51.502;10.800;2022-12-07T02:03:54;4.20;99.90
20139;DHT22;10230;51.502;10.800;2022-12-07T02:06:23;4.20;99.90
20139;DHT22;10230;51.502;10.800;2022-12-07T02:08:49;4.10;99.90
20139;DHT22;10230;51.502;10.800;2022-12-07T02:11:16;4.10;99.90
20139;DHT22;10230;51.502;10.800;2022-12-07T02:13:43;4.00;99.90
20139;DHT22;10230;51.502;10.800;2022-12-07T02:16:34;4.00;99.90
20139;DHT22;10230;51.502;10.800;2022-12-07T02:27:52;3.90;99.90
20139;DHT22;10230;51.502;10.800;2022-12-07T02:30:22;3.90;99.90
20139;DHT22;10230;51.502;10.800;2022-12-07T02:33:13;3.80;99.90
20139;DHT22;10230;51.502;10.800;2022-12-07T02:35:54;3.80;99.90
20139;DHT22;10230;51.502;10.800;2022-12-07T02:43:42;3.70;99.90
20139;DHT22;10230;51.502;10.800;2022-12-07T02:46:11;3.60;99.90
20139;DHT22;10230;51.502;10.800;2022-12-07T02:48:40;3.60;99.90
20139;DHT22;10230;51.502;10.800;2022-12-07T02:51:06;3.50;99.90
20139;DHT22;10230;51.502;10.800;2022-12-07T02:53:38;3.50;99.90
20139;DHT22;10230;51.502;10.800;2022-12-07T03:02:15;3.50;99.90
20139;DHT22;10230;51.502;10.800;2022-12-07T03:13:09;3.70;99.90
20139;DHT22;10230;51.502;10.800;2022-12-07T03:15:45;3.70;99.90
20139;DHT22;10230;51.502;10.800;2022-12-07T03:18:13;3.60;99.90
20139;DHT22;10230;51.502;10.800;2022-12-07T03:20:43;3.60;99.90
20139;DHT22;10230;51.502;10.800;2022-12-07T03:23:12;3.60;99.90
20139;DHT22;10230;51.502;10.800;2022-12-07T03:25:42;3.70;99.90
20139;DHT22;10230;51.502;10.800;2022-12-07T03:28:10;3.70;99.90
20139;DHT22;10230;51.502;10.800;2022-12-07T03:30:52;3.70;99.90
20139;DHT22;10230;51.502;10.800;2022-12-07T03:33:24;3.70;99.90
20139;DHT22;10230;51.502;10.800;2022-12-07T03:39:28;3.80;99.90
20139;DHT22;10230;51.502;10.800;2022-12-07T03:41:55;3.80;99.90
20139;DHT22;10230;51.502;10.800;2022-12-07T03:44:22;3.90;99.90
20139;DHT22;10230;51.502;10.800;2022-12-07T03:47:02;3.90;99.90
20139;DHT22;10230;51.502;10.800;2022-12-07T03:49:45;3.90;99.90
20139;DHT22;10230;51.502;10.800;2022-12-07T03:53:16;3.90;99.90
20139;DHT22;10230;51.502;10.800;2022-12-07T03:55:26;4.00;99.90
20139;DHT22;10230;51.502;10.800;2022-12-07T03:57:56;4.00;99.90
20139;DHT22;10230;51.502;10.800;2022-12-07T04:00:23;4.00;99.90
20139;DHT22;10230;51.502;10.800;2022-12-07T04:02:52;4.00;99.90
20139;DHT22;10230;51.502;10.800;2022-12-07T04:05:17;4.00;99.90
20139;DHT22;10230;51.502;10.800;2022-12-07T04:07:43;4.10;99.90
20139;DHT22;10230;51.502;10.800;2022-12-07T04:10:10;4.10;99.90
20139;DHT22;10230;51.502;10.800;2022-12-07T04:12:36;4.00;99.90
20139;DHT22;10230;51.502;10.800;2022-12-07T04:15:02;4.10;99.90
20139;DHT22;10230;51.502;10.800;2022-12-07T04:17:28;4.10;99.90
20139;DHT22;10230;51.502;10.800;2022-12-07T04:19:54;4.10;99.90
20139;DHT22;10230;51.502;10.800;2022-12-07T04:22:20;4.10;99.90
20139;DHT22;10230;51.502;10.800;2022-12-07T04:24:45;4.10;99.90
20139;DHT22;10230;51.502;10.800;2022-12-07T04:27:11;4.10;99.90
20139;DHT22;10230;51.502;10.800;2022-12-07T04:29:37;4.10;99.90
20139;DHT22;10230;51.502;10.800;2022-12-07T04:32:02;4.10;99.90
20139;DHT22;10230;51.502;10.800;2022-12-07T04:34:28;4.10;99.90
20139;DHT22;10230;51.502;10.800;2022-12-07T04:36:54;4.10;99.90
20139;DHT22;10230;51.502;10.800;2022-12-07T04:41:47;4.00;99.90
20139;DHT22;10230;51.502;10.800;2022-12-07T04:44:13;4.00;99.90
20139;DHT22;10230;51.502;10.800;2022-12-07T04:46:40;4.10;99.90
20139;DHT22;10230;51.502;10.800;2022-12-07T04:49:06;4.00;99.90
20139;DHT22;10230;51.502;10.800;2022-12-07T04:51:32;4.00;99.90
20139;DHT22;10230;51.502;10.800;2022-12-07T04:53:57;4.00;99.90
20139;DHT22;10230;51.502;10.800;2022-12-07T04:56:23;4.00;99.90
20139;DHT22;10230;51.502;10.800;2022-12-07T04:58:50;4.00;99.90
20139;DHT22;10230;51.502;10.800;2022-12-07T05:01:17;3.90;99.90
20139;DHT22;10230;51.502;10.800;2022-12-07T05:03:43;4.00;99.90
20139;DHT22;10230;51.502;10.800;2022-12-07T05:06:10;3.90;99.90
20139;DHT22;10230;51.502;10.800;2022-12-07T05:08:36;3.90;99.90
20139;DHT22;10230;51.502;10.800;2022-12-07T05:11:03;3.90;99.90
20139;DHT22;10230;51.502;10.800;2022-12-07T05:13:29;3.90;99.90
20139;DHT22;10230;51.502;10.800;2022-12-07T05:15:55;3.90;99.90
20139;DHT22;10230;51.502;10.800;2022-12-07T05:18:21;3.90;99.90
20139;DHT22;10230;51.502;10.800;2022-12-07T05:20:46;3.90;99.90
20139;DHT22;10230;51.502;10.800;2022-12-07T05:23:12;3.80;99.90
20139;DHT22;10230;51.502;10.800;2022-12-07T05:25:38;3.70;99.90
20139;DHT22;10230;51.502;10.800;2022-12-07T05:28:05;3.60;99.90
20139;DHT22;10230;51.502;10.800;2022-12-07T05:30:31;3.60;99.90
20139;DHT22;10230;51.502;10.800;2022-12-07T05:32:58;3.50;99.90
20139;DHT22;10230;51.502;10.800;2022-12-07T05:35:23;3.50;99.90
20139;DHT22;10230;51.502;10.800;2022-12-07T05:37:49;3.50;99.90
20139;DHT22;10230;51.502;10.800;2022-12-07T05:40:15;3.50;99.90
20139;DHT22;10230;51.502;10.800;2022-12-07T05:42:42;3.50;99.90
20139;DHT22;10230;51.502;10.800;2022-12-07T05:45:08;3.50;99.90
20139;DHT22;10230;51.502;10.800;2022-12-07T05:47:35;3.60;99.90
20139;DHT22;10230;51.502;10.800;2022-12-07T05:50:01;3.60;99.90
20139;DHT22;10230;51.502;10.800;2022-12-07T05:52:27;3.70;99.90
20139;DHT22;10230;51.502;10.800;2022-12-07T05:54:52;3.70;99.90
20139;DHT22;10230;51.502;10.800;2022-12-07T05:57:19;3.70;99.90
20139;DHT22;10230;51.502;10.800;2022-12-07T05:59:44;3.70;99.90
20139;DHT22;10230;51.502;10.800;2022-12-07T06:02:12;3.70;99.90
20139;DHT22;10230;51.502;10.800;2022-12-07T06:04:40;3.70;99.90
20139;DHT22;10230;51.502;10.800;2022-12-07T06:07:07;3.70;99.90
20139;DHT22;10230;51.502;10.800;2022-12-07T06:09:34;3.70;99.90
20139;DHT22;10230;51.502;10.800;2022-12-07T06:12:00;3.70;99.90
20139;DHT22;10230;51.502;10.800;2022-12-07T06:14:44;3.70;99.90
20139;DHT22;10230;51.502;10.800;2022-12-07T06:17:10;3.70;99.90
20139;DHT22;10230;51.502;10.800;2022-12-07T06:19:36;3.70;99.90
20139;DHT22;10230;51.502;10.800;2022-12-07T06:22:02;3.80;99.90
20139;DHT22;10230;51.502;10.800;2022-12-07T06:24:30;3.80;99.90
20139;DHT22;10230;51.502;10.800;2022-12-07T06:26:56;3.80;99.90
20139;DHT22;10230;51.502;10.800;2022-12-07T06:29:21;3.80;99.90
20139;DHT22;10230;51.502;10.800;2022-12-07T06:31:47;3.80;99.90
20139;DHT22;10230;51.502;10.800;2022-12-07T06:34:19;3.80;99.90
20139;DHT22;10230;51.502;10.800;2022-12-07T06:36:45;3.80;99.90
20139;DHT22;10230;51.502;10.800;2022-12-07T06:39:12;3.90;99.90
20139;DHT22;10230;51.502;10.800;2022-12-07T06:41:38;3.90;99.90
20139;DHT22;10230;51.502;10.800;2022-12-07T06:44:05;3.90;99.90
20139;DHT22;10230;51.502;10.800;2022-12-07T06:46:31;4.00;99.90
20139;DHT22;10230;51.502;10.800;2022-12-07T06:48:57;4.00;99.90
20139;DHT22;10230;51.502;10.800;2022-12-07T06:51:23;4.00;99.90
20139;DHT22;10230;51.502;10.800;2022-12-07T06:53:48;4.00;99.90
20139;DHT22;10230;51.502;10.800;2022-12-07T06:56:14;4.10;99.90
20139;DHT22;10230;51.502;10.800;2022-12-07T06:58:40;4.10;99.90
20139;DHT22;10230;51.502;10.800;2022-12-07T07:01:16;4.10;99.90
20139;DHT22;10230;51.502;10.800;2022-12-07T07:03:43;4.10;99.90
20139;DHT22;10230;51.502;10.800;2022-12-07T07:06:09;4.00;99.90
20139;DHT22;10230;51.502;10.800;2022-12-07T07:08:36;4.00;99.90
20139;DHT22;10230;51.502;10.800;2022-12-07T07:11:02;4.00;99.90
20139;DHT22;10230;51.502;10.800;2022-12-07T07:13:28;4.00;99.90
20139;DHT22;10230;51.502;10.800;2022-12-07T07:15:54;4.00;99.90
20139;DHT22;10230;51.502;10.800;2022-12-07T07:18:20;4.00;99.90
20139;DHT22;10230;51.502;10.800;2022-12-07T07:20:46;4.00;99.90
20139;DHT22;10230;51.502;10.800;2022-12-07T07:23:11;4.00;99.90
20139;DHT22;10230;51.502;10.800;2022-12-07T07:25:37;4.00;99.90
20139;DHT22;10230;51.502;10.800;2022-12-07T07:28:03;4.00;99.90
20139;DHT22;10230;51.502;10.800;2022-12-07T07:30:29;4.00;99.90
20139;DHT22;10230;51.502;10.800;2022-12-07T07:32:58;4.00;99.90
20139;DHT22;10230;51.502;10.800;2022-12-07T07:35:25;4.00;99.90
20139;DHT22;10230;51.502;10.800;2022-12-07T07:37:51;4.00;99.90
20139;DHT22;10230;51.502;10.800;2022-12-07T07:40:17;3.90;99.90
20139;DHT22;10230;51.502;10.800;2022-12-07T07:42:43;3.90;99.90
20139;DHT22;10230;51.502;10.800;2022-12-07T07:45:09;3.90;99.90
20139;DHT22;10230;51.502;10.800;2022-12-07T07:47:34;3.90;99.90
20139;DHT22;10230;51.502;10.800;2022-12-07T07:50:00;3.90;99.90
20139;DHT22;10230;51.502;10.800;2022-12-07T07:52:26;3.90;99.90
20139;DHT22;10230;51.502;10.800;2022-12-07T07:54:52;3.90;99.90
20139;DHT22;10230;51.502;10.800;2022-12-07T07:57:18;3.90;99.90
20139;DHT22;10230;51.502;10.800;2022-12-07T07:59:43;3.90;99.90
20139;DHT22;10230;51.502;10.800;2022-12-07T08:02:14;3.90;99.90
20139;DHT22;10230;51.502;10.800;2022-12-07T08:07:06;4.10;99.90
20139;DHT22;10230;51.502;10.800;2022-12-07T08:09:32;4.10;99.90
20139;DHT22;10230;51.502;10.800;2022-12-07T08:11:57;4.10;99.90
20139;DHT22;10230;51.502;10.800;2022-12-07T08:14:24;4.20;99.90
20139;DHT22;10230;51.502;10.800;2022-12-07T08:16:50;4.20;99.90
20139;DHT22;10230;51.502;10.800;2022-12-07T08:19:15;4.20;99.90
20139;DHT22;10230;51.502;10.800;2022-12-07T08:21:41;4.30;99.90
20139;DHT22;10230;51.502;10.800;2022-12-07T08:24:07;4.30;99.90
20139;DHT22;10230;51.502;10.800;2022-12-07T08:26:33;4.30;99.90
20139;DHT22;10230;51.502;10.800;2022-12-07T08:28:59;4.40;99.90
20139;DHT22;10230;51.502;10.800;2022-12-07T08:31:24;4.40;99.90
20139;DHT22;10230;51.502;10.800;2022-12-07T08:33:51;4.50;99.90
20139;DHT22;10230;51.502;10.800;2022-12-07T08:36:17;4.50;99.90
20139;DHT22;10230;51.502;10.800;2022-12-07T08:43:35;4.80;99.90
20139;DHT22;10230;51.502;10.800;2022-12-07T09:42:07;5.40;99.90
20139;DHT22;10230;51.502;10.800;2022-12-07T09:44:34;5.50;99.90
20139;DHT22;10230;51.502;10.800;2022-12-07T09:47:00;5.60;99.90
20139;DHT22;10230;51.502;10.800;2022-12-07T09:49:31;5.60;99.90
20139;DHT22;10230;51.502;10.800;2022-12-07T09:52:20;5.70;99.90
20139;DHT22;10230;51.502;10.800;2022-12-07T09:54:50;5.60;99.90
20139;DHT22;10230;51.502;10.800;2022-12-07T09:57:16;5.60;99.90
20139;DHT22;10230;51.502;10.800;2022-12-07T09:59:42;5.60;99.90
20139;DHT22;10230;51.502;10.800;2022-12-07T10:02:39;5.50;99.90
